Observations for BOSCOMBE DOWN, United Kingdom (EGDM)

EGDM 211750Z AUTO 25013KT 4700 RA BKN006/// BKN013/// 10/10 Q1007   
EGDM 211650Z AUTO 21009KT 3800 -RA SCT001/// BKN008/// 08/08 Q1007  
EGDM 211550Z AUTO 20007KT 4800 RA BKN002/// 07/07 Q1007 
EGDM 211450Z AUTO 16007KT 8000 -RA SCT002/// SCT010/// BKN012/// 07/07 Q1008
EGDM 211350Z AUTO 16007KT 6000 RA BKN002/// BKN013/// 06/06 Q1009   
EGDM 211250Z AUTO 15011KT 6000 RA BKN003/// BKN015/// 05/05 Q1010   
EGDM 211150Z AUTO 14012KT 4900 RA OVC002/// 04/04 Q1011 
EGDM 211050Z AUTO 13015KT 5000 RA OVC003/// 03/03 Q1011 
EGDM 210950Z AUTO 12011KT 3700 RA BKN002/// BKN014/// 02/02 Q1012   
EGDM 210850Z AUTO 12009KT 2900 RA FEW002/// SCT025/// BKN035/// 02/02 Q1013 
EGDM 210750Z AUTO 14008KT 2600 RA FEW003/// BKN040/// 01/01 Q1014   
EGDM 210650Z AUTO 14007KT 5000 BR BKN040/// 02/01 Q1013 RERA
EGDM 210550Z AUTO 09006KT 5000 -RA BKN045/// 01/01 Q1014
EGDM 210450Z AUTO 09001KT 7000 -RA SCT005/// BKN037/// BKN050/// 02/01 Q1014
EGDM 210350Z AUTO 14002KT 9999 OVC005/// 02/01 Q1014
EGDM 210250Z AUTO 02003KT 9999 OVC006/// 02/01 Q1013
EGDM 210150Z AUTO 35003KT 9999 OVC008/// 02/01 Q1013
EGDM 210050Z AUTO 33004KT 9999 OVC008/// 02/01 Q1013
EGDM 202350Z AUTO 33006KT 9999 OVC005/// 02/02 Q1012
EGDM 202250Z AUTO 34005KT 9999 OVC004/// 02/02 Q1010
EGDM 202150Z AUTO 33002KT 9999 OVC004/// 02/02 Q1009
EGDM 202050Z AUTO 36010KT 9999 OVC003/// 02/02 Q1008
EGDM 201950Z AUTO 33010KT 9999 SCT004/// BKN019/// 03/03 Q1006  
EGDM 201850Z AUTO 01008KT 9999 BKN004/// SCT017/// 04/04 Q1003  
EGDM 201750Z AUTO 02009KT 9999 BKN003/// BKN015/// 05/05 Q1001 REDZ